Time;durP1;ratioP1;P1;durP2;ratioP2;P2;SDS_P1;SDS_P2;PMS_P1;PMS_P2;Temp;Humidity;BMP_temperature;BMP_pressure;BME280_temperature;BME280_humidity;BME280_pressure;Samples;Min_cycle;Max_cycle;Signal;HPM_P1;HPM_P2
2022/10/30 07:08:16;;;;;;;;;18.00;16.50;;;;;15.27;72.43;101474.34;3019526;22;45956;-75
2022/10/30 07:09:27;;;;;;;;;15.25;15.25;;;;;15.29;72.46;101481.28;3011691;22;45263;-75
2022/10/30 07:10:37;;;;;;;;;15.00;14.75;;;;;15.32;72.56;101477.66;3012159;22;48295;-75
2022/10/30 07:11:49;;;;;;;;;22.00;15.75;;;;;15.34;72.64;101478.44;3017179;22;45184;-75
2022/10/30 07:12:59;;;;;;;;;17.25;12.25;;;;;15.35;72.50;101471.38;3011949;22;47684;-76
2022/10/30 07:14:11;;;;;;;;;17.50;15.25;;;;;15.34;72.62;101467.84;3016172;22;45466;-76
2022/10/30 07:15:22;;;;;;;;;18.25;13.25;;;;;15.36;72.51;101471.31;3011770;22;46635;-75
2022/10/30 07:16:32;;;;;;;;;17.00;13.00;;;;;15.38;72.57;101479.19;3012680;22;45284;-75
2022/10/30 07:17:50;;;;;;;;;17.50;14.75;;;;;15.39;72.64;101475.63;3010827;22;46676;-75
2022/10/30 07:19:01;;;;;;;;;11.75;8.75;;;;;15.41;72.70;101471.97;3018189;22;45287;-75
2022/10/30 07:20:11;;;;;;;;;14.00;11.00;;;;;15.44;72.39;101473.63;3028736;22;45323;-75
2022/10/30 07:21:22;;;;;;;;;16.25;14.00;;;;;15.46;72.55;101473.59;3028272;22;45168;-75
2022/10/30 07:22:32;;;;;;;;;18.75;17.25;;;;;15.46;72.65;101470.94;3028082;22;46442;-75
2022/10/30 07:23:43;;;;;;;;;20.75;17.50;;;;;15.50;72.70;101477.81;3027415;22;44662;-76
2022/10/30 07:24:53;;;;;;;;;16.25;15.50;;;;;15.51;72.59;101467.16;3027259;22;47000;-75
2022/10/30 07:26:04;;;;;;;;;18.75;16.00;;;;;15.55;72.63;101472.34;3012503;22;45189;-75
2022/10/30 07:27:14;;;;;;;;;15.50;11.75;;;;;15.56;72.68;101463.44;3016146;22;46633;-75
2022/10/30 07:28:24;;;;;;;;;18.25;16.50;;;;;15.59;72.39;101471.25;3028886;22;45273;-75
2022/10/30 07:29:35;;;;;;;;;17.00;16.50;;;;;15.60;72.57;101459.75;3027091;22;46591;-76
2022/10/30 07:30:45;;;;;;;;;19.25;15.75;;;;;15.62;72.62;101465.84;3028728;22;45274;-75
2022/10/30 07:31:55;;;;;;;;;18.25;14.50;;;;;15.63;72.58;101462.28;3012247;22;53804;-75
2022/10/30 07:33:08;;;;;;;;;18.00;14.50;;;;;15.66;72.71;101459.47;3017085;22;45244;-75
2022/10/30 07:34:18;;;;;;;;;14.25;11.75;;;;;15.69;72.59;101466.44;3028162;22;45444;-75
2022/10/30 07:35:29;;;;;;;;;16.25;11.50;;;;;15.73;72.67;101473.31;3012470;22;45177;-75
2022/10/30 07:36:40;;;;;;;;;17.75;12.00;;;;;15.75;72.38;101472.31;3017440;22;45268;-75
2022/10/30 07:37:50;;;;;;;;;16.50;15.50;;;;;15.79;72.61;101478.38;3027650;22;45331;-75
2022/10/30 07:39:00;;;;;;;;;18.00;17.50;;;;;15.84;72.40;101470.22;3027811;22;45175;-75
2022/10/30 07:40:10;;;;;;;;;15.00;12.25;;;;;15.89;72.36;101478.81;3012266;22;45068;-75
2022/10/30 07:41:21;;;;;;;;;15.75;14.75;;;;;15.94;72.05;101475.97;3001765;22;45806;-75
2022/10/30 07:42:31;;;;;;;;;13.75;11.50;;;;;15.97;71.84;101476.72;3016871;22;44844;-75
2022/10/30 07:43:42;;;;;;;;;12.75;12.25;;;;;16.01;71.81;101479.19;3012099;22;47395;-76
2022/10/30 07:44:52;;;;;;;;;13.75;13.75;;;;;16.04;71.58;101481.72;3012484;22;45193;-75
2022/10/30 07:46:03;;;;;;;;;14.25;12.50;;;;;16.08;71.62;101472.72;3015619;22;48010;-75
2022/10/30 07:47:13;;;;;;;;;12.50;12.00;;;;;16.12;71.97;101476.97;3011806;22;44563;-75
2022/10/30 07:48:23;;;;;;;;;19.25;14.75;;;;;16.14;71.43;101469.81;3017139;22;45315;-75
2022/10/30 07:49:33;;;;;;;;;17.25;13.75;;;;;16.18;71.24;101467.88;3028648;22;44676;-75
2022/10/30 07:50:44;;;;;;;;;14.25;13.75;;;;;16.20;71.35;101469.53;3011927;22;47005;-75
2022/10/30 07:51:54;;;;;;;;;16.50;16.50;;;;;16.25;71.24;101476.44;3017234;22;45314;-75
2022/10/30 07:53:04;;;;;;;;;20.50;16.50;;;;;16.28;71.25;101482.44;3011782;22;46534;-76
2022/10/30 07:54:15;;;;;;;;;17.75;15.75;;;;;16.31;71.43;101474.34;3012385;22;45144;-75
2022/10/30 07:55:25;;;;;;;;;18.00;14.50;;;;;16.36;71.42;101481.22;3001400;22;47982;-75
2022/10/30 07:56:36;;;;;;;;;16.25;14.00;;;;;16.39;70.88;101481.09;3000309;22;45200;-75
2022/10/30 07:57:46;;;;;;;;;19.00;16.50;;;;;16.42;70.92;101484.47;3015485;22;45327;-75
2022/10/30 07:58:56;;;;;;;;;16.75;15.00;;;;;16.46;70.94;101479.00;3029498;22;45254;-75
2022/10/30 08:00:10;;;;;;;;;22.75;16.25;;;;;16.48;70.83;101474.50;3027504;22;46221;-75
2022/10/30 08:01:21;;;;;;;;;18.75;18.50;;;;;16.49;71.08;101468.28;3027317;22;45125;-75
2022/10/30 08:02:31;;;;;;;;;10.75;10.50;;;;;16.51;70.97;101474.38;3027635;22;45297;-75
2022/10/30 08:03:41;;;;;;;;;18.75;16.75;;;;;16.51;70.35;101475.22;3012303;22;45189;-75
2022/10/30 08:04:52;;;;;;;;;17.00;13.75;;;;;16.56;70.85;101479.44;3012485;22;47966;-75
2022/10/30 08:06:02;;;;;;;;;16.50;16.00;;;;;16.58;70.76;101477.56;3016741;22;44548;-76
2022/10/30 08:07:12;;;;;;;;;19.00;17.75;;;;;16.61;71.09;101480.97;3011121;22;45888;-76
2022/10/30 08:08:23;;;;;;;;;11.25;10.75;;;;;16.65;70.97;101481.66;3017161;22;45283;-76
2022/10/30 08:09:33;;;;;;;;;20.25;14.75;;;;;16.69;70.67;101483.22;3028694;22;46976;-75
2022/10/30 08:10:43;;;;;;;;;12.00;11.50;;;;;16.74;70.68;101491.00;3028303;22;44606;-75
2022/10/30 08:11:54;;;;;;;;;14.25;12.50;;;;;16.78;70.35;101505.84;3028860;22;51484;-75
2022/10/30 08:13:04;;;;;;;;;17.75;13.00;;;;;16.82;70.75;101504.75;3029270;22;45203;-75
2022/10/30 08:14:15;;;;;;;;;18.00;15.50;;;;;16.88;70.07;101503.63;3029201;22;45295;-75
2022/10/30 08:15:25;;;;;;;;;16.75;14.50;;;;;16.91;70.36;101510.56;3028933;22;45133;-75
2022/10/30 08:16:36;;;;;;;;;11.25;10.50;;;;;16.94;70.01;101515.75;3028932;22;46423;-75
2022/10/30 08:17:48;;;;;;;;;17.00;14.25;;;;;16.97;69.75;101511.13;3029111;22;44684;-75
2022/10/30 08:18:58;;;;;;;;;15.50;13.50;;;;;17.02;69.47;101510.91;3028613;22;45552;-75
2022/10/30 08:20:10;;;;;;;;;17.25;15.00;;;;;17.06;69.46;101507.16;3012912;22;45168;-75
2022/10/30 08:21:21;;;;;;;;;18.75;13.25;;;;;17.13;69.75;101512.19;3017997;22;45380;-75
2022/10/30 08:22:31;;;;;;;;;17.50;13.50;;;;;17.17;69.06;101508.47;3028980;22;45156;-75
2022/10/30 08:23:41;;;;;;;;;14.00;12.00;;;;;17.21;68.95;101515.38;3012862;22;47077;-75
2022/10/30 08:24:52;;;;;;;;;14.00;12.25;;;;;17.25;68.94;101524.03;3013253;22;45199;-75
2022/10/30 08:26:02;;;;;;;;;15.50;11.50;;;;;17.28;69.35;101523.91;3012927;22;46837;-75
2022/10/30 08:27:12;;;;;;;;;12.75;12.00;;;;;17.32;69.06;101529.00;3017815;22;45179;-75
2022/10/30 08:28:23;;;;;;;;;18.25;12.50;;;;;17.37;68.93;101533.19;3028511;22;46013;-76
2022/10/30 08:29:33;;;;;;;;;13.50;10.00;;;;;17.42;68.49;101525.88;3012766;22;48490;-75
2022/10/30 08:30:44;;;;;;;;;11.75;11.75;;;;;17.47;68.54;101538.91;3012884;22;46914;-75
2022/10/30 08:31:54;;;;;;;;;17.25;13.50;;;;;17.51;68.75;101533.38;3016952;22;44672;-75
2022/10/30 08:33:09;;;;;;;;;11.75;9.50;;;;;17.59;68.27;101548.06;3029329;22;46198;-75
2022/10/30 08:34:19;;;;;;;;;12.25;11.00;;;;;17.63;67.74;101531.91;3029167;22;44650;-75
2022/10/30 08:35:31;;;;;;;;;16.00;12.25;;;;;17.66;67.27;101546.84;3028016;22;45508;-75
2022/10/30 08:36:42;;;;;;;;;14.25;12.75;;;;;17.67;68.40;101545.91;3025486;22;44566;-75
2022/10/30 08:37:57;;;;;;;;;14.50;11.00;;;;;17.70;67.88;101540.44;3024766;22;46179;-76
2022/10/30 08:39:07;;;;;;;;;10.50;9.50;;;;;17.72;67.68;101541.22;3011496;22;45608;-75
2022/10/30 08:40:17;;;;;;;;;12.25;10.25;;;;;17.74;67.15;101534.03;3002143;22;48057;-75
2022/10/30 08:41:27;;;;;;;;;13.25;10.75;;;;;17.79;67.04;101538.25;3017879;22;45172;-76
2022/10/30 08:42:38;;;;;;;;;13.50;12.50;;;;;17.79;67.46;101532.91;3028318;22;53065;-75
2022/10/30 08:43:48;;;;;;;;;13.75;11.25;;;;;17.80;66.94;101526.69;3028320;22;45478;-75
2022/10/30 08:44:58;;;;;;;;;13.00;12.00;;;;;17.84;67.48;101536.22;3011911;22;48061;-75
2022/10/30 08:46:09;;;;;;;;;13.50;11.00;;;;;17.84;67.22;101538.88;3017233;22;45158;-75
2022/10/30 08:47:19;;;;;;;;;12.50;10.25;;;;;17.85;67.21;101546.75;3028518;22;45136;-75
2022/10/30 08:48:29;;;;;;;;;11.50;11.00;;;;;17.84;66.78;101544.19;3010891;22;45220;-75
2022/10/30 08:49:40;;;;;;;;;11.50;10.00;;;;;17.82;67.49;101538.09;3016815;22;45941;-75
2022/10/30 08:50:50;;;;;;;;;12.25;11.25;;;;;17.81;67.23;101547.84;3010874;22;45241;-76
2022/10/30 08:52:00;;;;;;;;;13.50;12.00;;;;;17.82;67.05;101546.06;3000825;22;47002;-75
2022/10/30 08:53:13;;;;;;;;;14.00;12.50;;;;;17.81;66.88;101544.34;3001408;22;45202;-75
2022/10/30 08:54:23;;;;;;;;;13.00;8.00;;;;;17.80;66.53;101538.19;3016802;22;46909;-75
2022/10/30 08:55:34;;;;;;;;;12.50;10.75;;;;;17.79;67.11;101535.56;3011335;22;45212;-76
2022/10/30 08:56:45;;;;;;;;;11.75;9.75;;;;;17.77;67.52;101533.88;3016225;22;47172;-75
2022/10/30 08:57:55;;;;;;;;;13.25;12.75;;;;;17.76;66.89;101532.13;3027226;22;45234;-75
2022/10/30 08:59:05;;;;;;;;;9.25;7.25;;;;;17.75;66.65;101532.22;3028757;22;45289;-75
2022/10/30 09:00:16;;;;;;;;;14.50;12.25;;;;;17.74;67.04;101528.72;3028750;22;44628;-75
2022/10/30 09:01:26;;;;;;;;;11.25;9.25;;;;;17.74;67.25;101528.72;3029105;22;46245;-75
2022/10/30 09:02:39;;;;;;;;;12.75;11.25;;;;;17.72;67.07;101533.25;3012598;22;45275;-76
2022/10/30 09:03:49;;;;;;;;;11.75;10.00;;;;;17.71;67.39;101526.19;3017241;22;45286;-76
2022/10/30 09:05:00;;;;;;;;;12.00;11.00;;;;;17.71;67.00;101523.53;3027954;22;45144;-76
2022/10/30 09:06:10;;;;;;;;;15.00;12.00;;;;;17.71;67.47;101526.19;3028459;22;45391;-76
2022/10/30 09:07:20;;;;;;;;;11.00;10.25;;;;;17.73;67.60;101523.47;3028635;22;45089;-76
2022/10/30 09:08:31;;;;;;;;;12.00;9.50;;;;;17.75;67.48;101527.75;3027666;22;46429;-76
2022/10/30 09:09:41;;;;;;;;;12.00;9.50;;;;;17.77;67.01;101530.34;3028915;22;45126;-75
2022/10/30 09:10:56;;;;;;;;;14.25;11.50;;;;;17.81;67.68;101534.56;3028961;22;47931;-75
2022/10/30 09:12:06;;;;;;;;;11.25;10.50;;;;;17.83;67.37;101535.34;3029304;22;45294;-76
2022/10/30 09:13:16;;;;;;;;;13.75;9.75;;;;;17.85;67.01;101533.47;3012783;22;47125;-76
2022/10/30 09:14:27;;;;;;;;;14.00;9.50;;;;;17.89;67.02;101531.50;3017395;22;44619;-76
2022/10/30 09:15:37;;;;;;;;;15.75;13.25;;;;;17.91;65.93;101532.28;3028951;22;45426;-76
2022/10/30 09:16:47;;;;;;;;;15.75;11.50;;;;;17.95;66.35;101527.69;3012571;22;45283;-76
2022/10/30 09:18:00;;;;;;;;;15.50;12.75;;;;;17.96;66.81;101534.72;3001843;22;49801;-76
2022/10/30 09:19:10;;;;;;;;;10.50;10.50;;;;;17.99;67.14;101532.75;3017609;22;45277;-75
2022/10/30 09:20:21;;;;;;;;;16.75;14.25;;;;;18.04;66.52;101536.97;3029088;22;46291;-76
2022/10/30 09:21:31;;;;;;;;;15.25;12.50;;;;;18.06;66.23;101535.97;3012786;22;45547;-76
2022/10/30 09:22:42;;;;;;;;;10.25;9.25;;;;;18.08;66.54;101543.84;3017161;22;45639;-75
2022/10/30 09:23:52;;;;;;;;;13.75;13.75;;;;;18.11;65.91;101535.72;3012605;22;45241;-75
2022/10/30 09:25:02;;;;;;;;;10.25;9.50;;;;;18.15;65.60;101541.75;3017026;22;49039;-75
2022/10/30 09:26:13;;;;;;;;;16.00;12.00;;;;;18.15;65.97;101539.91;3028621;22;45202;-75
2022/10/30 09:27:23;;;;;;;;;13.50;11.75;;;;;18.17;65.95;101542.53;3028892;22;45196;-75
2022/10/30 09:28:33;;;;;;;;;11.00;11.00;;;;;18.19;65.38;101543.28;3028988;22;44558;-75
2022/10/30 09:29:44;;;;;;;;;12.00;10.25;;;;;18.19;66.48;101549.50;3012608;22;46131;-75
2022/10/30 09:30:55;;;;;;;;;10.50;9.75;;;;;18.21;66.01;101544.97;3012692;22;45224;-75
2022/10/30 09:32:09;;;;;;;;;12.00;10.25;;;;;18.24;66.44;101546.59;3017813;22;45297;-74
2022/10/30 09:33:19;;;;;;;;;13.25;11.25;;;;;18.27;66.57;101538.44;3012871;22;45236;-74
2022/10/30 09:34:30;;;;;;;;;12.50;10.00;;;;;18.31;65.85;101540.03;3001809;22;46920;-75
2022/10/30 09:35:40;;;;;;;;;12.50;10.50;;;;;18.35;66.07;101548.69;3017860;22;45203;-75
2022/10/30 09:36:50;;;;;;;;;12.00;10.25;;;;;18.38;65.81;101548.53;3028720;22;46585;-75
2022/10/30 09:38:01;;;;;;;;;10.75;10.75;;;;;18.42;66.01;101543.91;3012589;22;45117;-75
2022/10/30 09:39:11;;;;;;;;;10.50;10.50;;;;;18.45;65.89;101549.06;3017543;22;45245;-75
2022/10/30 09:40:30;;;;;;;;;16.25;13.50;;;;;18.49;65.37;101549.75;3012803;22;44535;-75
2022/10/30 09:41:55;;;;;;;;;16.25;12.25;;;;;18.49;65.51;101547.09;3019474;22;45583;-75
2022/10/30 09:43:50;;;;;;;;;13.75;10.00;;;;;18.50;66.22;101541.69;3028718;22;44771;-75
2022/10/30 09:45:10;;;;;;;;;12.25;12.25;;;;;18.53;64.95;101541.53;2990733;22;47457;-75
2022/10/30 09:46:29;;;;;;;;;15.50;10.50;;;;;18.58;64.66;101553.72;3019844;22;45158;-74
2022/10/30 09:47:49;;;;;;;;;12.25;9.25;;;;;18.59;64.73;101551.00;3028829;22;46248;-74
2022/10/30 09:49:19;;;;;;;;;9.75;9.75;;;;;18.62;64.32;101556.13;3029137;22;44581;-75
2022/10/30 09:50:56;;;;;;;;;12.25;11.75;;;;;18.66;64.41;101556.84;3028504;22;45345;-75
2022/10/30 09:52:19;;;;;;;;;11.00;11.00;;;;;18.69;64.57;101556.66;2996501;22;44654;-77
2022/10/30 09:53:54;;;;;;;;;13.50;13.00;;;;;18.72;64.33;101563.59;3020558;22;45593;-78
2022/10/30 09:55:26;;;;;;;;;13.25;11.00;;;;;18.78;64.54;101566.81;3029358;22;44563;-78
2022/10/30 09:57:01;;;;;;;;;15.50;11.75;;;;;18.84;64.07;101554.94;3029026;22;46357;-75
2022/10/30 09:58:57;;;;;;;;;11.25;11.00;;;;;18.93;64.07;101555.38;3029273;22;45109;-75
2022/10/30 10:00:15;;;;;;;;;10.25;9.50;;;;;18.97;63.88;101551.59;2996384;22;46165;-75
2022/10/30 10:01:47;;;;;;;;;11.75;10.00;;;;;19.01;63.56;101554.00;3028830;22;45314;-75
2022/10/30 10:03:22;;;;;;;;;10.00;10.00;;;;;19.07;62.13;101558.13;3028397;22;45305;-75
2022/10/30 10:04:42;;;;;;;;;15.00;11.75;;;;;19.10;62.90;101554.44;3012841;22;45228;-75
2022/10/30 10:06:04;;;;;;;;;12.00;10.50;;;;;19.11;63.62;101543.69;3019316;22;45959;-74
2022/10/30 10:07:23;;;;;;;;;12.75;10.75;;;;;19.14;63.07;101555.13;3028829;22;45348;-75
2022/10/30 10:08:45;;;;;;;;;11.75;11.00;;;;;19.18;63.75;101562.03;3028611;22;45459;-75
2022/10/30 10:10:21;;;;;;;;;9.75;9.25;;;;;19.22;63.11;101571.56;3012591;22;45244;-75
2022/10/30 10:11:38;;;;;;;;;11.50;9.75;;;;;19.26;61.75;101562.44;3021689;22;46369;-75
2022/10/30 10:12:52;;;;;;;;;12.00;12.00;;;;;19.29;62.05;101567.59;3028816;22;44565;-75
2022/10/30 10:14:13;;;;;;;;;9.50;9.00;;;;;19.31;61.44;101563.03;3011832;22;46408;-75
2022/10/30 10:15:53;;;;;;;;;14.25;13.00;;;;;19.33;61.15;101574.47;3020672;22;45196;-75
2022/10/30 10:17:09;;;;;;;;;15.50;11.25;;;;;19.36;61.68;101573.44;3025037;22;45228;-75
2022/10/30 10:18:29;;;;;;;;;11.75;9.00;;;;;19.38;62.28;101562.69;3029546;22;45150;-73
2022/10/30 10:19:48;;;;;;;;;10.25;8.25;;;;;19.41;62.21;101560.69;3013356;22;46990;-73
2022/10/30 10:21:12;;;;;;;;;13.75;9.00;;;;;19.45;62.06;101550.72;3004416;22;45308;-73
2022/10/30 10:22:40;;;;;;;;;11.50;9.00;;;;;19.51;61.53;101558.34;3021093;22;46404;-74
2022/10/30 10:23:54;;;;;;;;;10.25;9.75;;;;;19.55;61.30;101559.91;3029048;22;45127;-74
2022/10/30 10:25:11;;;;;;;;;10.75;9.50;;;;;19.58;61.59;101558.88;3012610;22;47152;-74
2022/10/30 10:26:37;;;;;;;;;8.75;8.75;;;;;19.63;60.53;101554.13;3003293;22;44614;-75
2022/10/30 10:27:52;;;;;;;;;9.75;9.50;;;;;19.65;59.06;101554.91;3021522;22;46770;-74
2022/10/30 10:29:17;;;;;;;;;12.00;9.00;;;;;19.64;58.41;101553.19;3028537;22;45515;-73
2022/10/30 10:30:53;;;;;;;;;10.50;7.25;;;;;19.62;58.29;101554.22;3009054;22;48264;-75
2022/10/30 10:32:41;;;;;;;;;11.75;8.00;;;;;19.62;59.50;101540.88;3020047;22;44983;-75
2022/10/30 10:34:07;;;;;;;;;9.00;8.00;;;;;19.63;60.99;101545.28;3028594;22;45434;-75
2022/10/30 10:35:42;;;;;;;;;15.25;10.75;;;;;19.67;59.03;101552.13;3010846;22;45313;-75
2022/10/30 10:37:09;;;;;;;;;12.25;8.50;;;;;19.68;59.75;101548.50;3023530;22;45240;-75
2022/10/30 10:38:31;;;;;;;;;8.75;7.25;;;;;19.67;58.85;101545.00;3013244;22;45327;-75
2022/10/30 10:40:11;;;;;;;;;11.25;10.25;;;;;19.68;59.84;101538.69;3020852;22;46449;-75
2022/10/30 10:41:57;;;;;;;;;11.50;10.50;;;;;19.69;60.49;101544.91;3029869;22;45140;-75
2022/10/30 10:43:32;;;;;;;;;8.50;8.25;;;;;19.72;61.01;101551.88;3029539;22;46271;-75
2022/10/30 10:44:51;;;;;;;;;13.50;10.00;;;;;19.72;59.15;101560.72;3013445;22;45181;-75
2022/10/30 10:46:07;;;;;;;;;9.50;9.25;;;;;19.73;60.83;101567.75;3019169;22;47154;-75
2022/10/30 10:47:31;;;;;;;;;9.75;8.50;;;;;19.74;59.87;101572.16;3029209;22;44580;-75
2022/10/30 10:49:12;;;;;;;;;12.25;9.00;;;;;19.78;60.01;101580.81;3029377;22;45342;-75
2022/10/30 10:50:33;;;;;;;;;9.00;8.00;;;;;19.83;59.77;101588.59;3029869;22;44466;-75
2022/10/30 10:51:50;;;;;;;;;11.00;8.00;;;;;19.87;60.15;101596.31;3029502;22;45458;-75
2022/10/30 10:53:08;;;;;;;;;8.50;7.50;;;;;19.90;60.75;101593.44;3029443;22;44597;-75
2022/10/30 10:54:29;;;;;;;;;11.75;8.00;;;;;19.90;59.86;101592.59;3029613;22;45438;-75
2022/10/30 10:55:43;;;;;;;;;8.50;8.00;;;;;19.92;59.55;101596.03;3029591;22;44496;-75
2022/10/30 10:56:55;;;;;;;;;11.50;7.00;;;;;19.93;59.95;101600.41;3029060;22;46680;-75
2022/10/30 10:58:24;;;;;;;;;13.75;10.25;;;;;19.95;59.01;101603.00;3029589;22;45319;-75
2022/10/30 10:59:43;;;;;;;;;9.75;8.00;;;;;19.96;57.08;101597.56;3012740;22;46879;-75
2022/10/30 11:00:56;;;;;;;;;11.00;8.50;;;;;19.94;57.46;101590.59;3020269;22;45170;-75
2022/10/30 11:02:07;;;;;;;;;8.25;7.50;;;;;19.94;59.27;101593.25;3029105;22;45251;-75
2022/10/30 11:03:23;;;;;;;;;8.50;7.75;;;;;19.95;59.34;101582.50;3013296;22;45260;-75
2022/10/30 11:04:44;;;;;;;;;11.25;9.50;;;;;19.99;59.36;101583.19;3019485;22;46291;-75
2022/10/30 11:06:00;;;;;;;;;9.00;8.50;;;;;20.02;58.80;101589.19;3013418;22;45193;-75
2022/10/30 11:07:23;;;;;;;;;7.50;6.75;;;;;20.07;58.73;101596.06;3019314;22;46289;-75
2022/10/30 11:08:36;;;;;;;;;9.75;9.25;;;;;20.09;58.49;101594.16;3029213;22;44497;-75
2022/10/30 11:09:52;;;;;;;;;10.75;8.50;;;;;20.13;57.61;101598.38;3029156;22;45301;-75
2022/10/30 11:11:05;;;;;;;;;10.50;7.75;;;;;20.12;57.77;101602.03;3029784;22;45235;-75
2022/10/30 11:12:16;;;;;;;;;12.25;10.00;;;;;20.12;58.68;101610.03;3029046;22;45368;-75
2022/10/30 11:13:30;;;;;;;;;9.00;7.50;;;;;20.12;56.34;101607.34;3012856;22;45264;-75
2022/10/30 11:14:41;;;;;;;;;8.25;7.50;;;;;20.11;58.17;101603.81;3018306;22;46963;-75
2022/10/30 11:16:17;;;;;;;;;10.75;8.50;;;;;20.13;58.45;101603.72;3013223;22;45233;-75
2022/10/30 11:17:37;;;;;;;;;12.50;8.75;;;;;20.11;57.36;101601.16;3023243;22;45397;-75
2022/10/30 11:18:53;;;;;;;;;9.50;8.25;;;;;20.08;56.40;101614.63;3029752;22;45230;-75
2022/10/30 11:20:27;;;;;;;;;9.00;8.25;;;;;19.99;57.14;101610.72;3013184;22;46998;-75
2022/10/30 11:21:43;;;;;;;;;12.25;9.00;;;;;19.95;57.49;101613.66;3013521;22;44692;-75
2022/10/30 11:22:53;;;;;;;;;9.25;9.00;;;;;19.90;56.58;101612.09;3018682;22;45611;-75
2022/10/30 11:24:25;;;;;;;;;9.25;8.75;;;;;19.89;58.08;101607.75;3029620;22;45195;-75
2022/10/30 11:25:35;;;;;;;;;11.75;10.00;;;;;19.87;57.80;101601.66;3029316;22;45381;-75
2022/10/30 11:26:46;;;;;;;;;11.00;8.50;;;;;19.86;58.69;101605.25;3029033;22;44648;-75
2022/10/30 11:27:58;;;;;;;;;9.00;7.50;;;;;19.85;57.56;101608.00;3029349;22;45279;-75
2022/10/30 11:29:17;;;;;;;;;7.50;6.75;;;;;19.85;58.42;101610.69;3013433;22;45153;-75
2022/10/30 11:30:28;;;;;;;;;7.25;6.75;;;;;19.86;58.31;101615.06;3020067;22;46342;-75
2022/10/30 11:31:43;;;;;;;;;11.25;9.25;;;;;19.87;59.02;101612.31;3029629;22;45166;-75
2022/10/30 11:32:55;;;;;;;;;8.00;7.25;;;;;19.91;58.13;101620.97;3029299;22;46428;-75
2022/10/30 11:34:17;;;;;;;;;11.25;6.00;;;;;19.93;58.82;101621.75;3029524;22;45265;-75
2022/10/30 11:35:27;;;;;;;;;8.25;7.50;;;;;19.95;59.36;101617.16;3029142;22;45301;-75
2022/10/30 11:36:38;;;;;;;;;9.00;8.00;;;;;19.93;59.79;101613.75;3029578;22;45318;-75
2022/10/30 11:37:51;;;;;;;;;7.25;7.25;;;;;19.91;59.43;101610.31;3012653;22;47107;-75
2022/10/30 11:39:08;;;;;;;;;7.75;7.75;;;;;19.89;59.19;101610.41;3003275;22;45127;-75
2022/10/30 11:40:22;;;;;;;;;11.00;10.00;;;;;19.88;58.72;101610.47;3019502;22;46575;-75
2022/10/30 11:41:32;;;;;;;;;8.50;8.00;;;;;19.88;59.14;101608.69;3013482;22;45186;-75
2022/10/30 11:42:56;;;;;;;;;9.00;6.00;;;;;19.89;59.18;101610.41;3017903;22;45449;-75
2022/10/30 11:44:10;;;;;;;;;13.25;8.50;;;;;19.88;58.59;101607.81;3029656;22;45219;-75
2022/10/30 11:45:28;;;;;;;;;9.25;8.25;;;;;19.87;57.87;101614.13;3029090;22;45233;-75
2022/10/30 11:46:38;;;;;;;;;7.25;7.00;;;;;19.85;58.24;101616.03;3013398;22;45341;-75
2022/10/30 11:47:49;;;;;;;;;10.75;8.75;;;;;19.82;58.29;101614.38;3017971;22;45314;-75
2022/10/30 11:49:00;;;;;;;;;11.00;9.25;;;;;19.81;58.66;101603.78;3029586;22;45172;-75
2022/10/30 11:50:22;;;;;;;;;11.50;8.25;;;;;19.77;57.65;101612.00;3029189;22;45384;-75
2022/10/30 11:51:38;;;;;;;;;11.75;10.25;;;;;19.76;58.17;101612.94;3029508;22;45178;-75
2022/10/30 11:52:54;;;;;;;;;11.00;8.00;;;;;19.75;58.29;101613.03;3012571;22;48043;-75
2022/10/30 11:54:06;;;;;;;;;9.75;9.75;;;;;19.75;58.71;101615.69;3013228;22;45232;-75
2022/10/30 11:55:27;;;;;;;;;9.00;9.00;;;;;19.75;58.78;101621.91;3018080;22;45434;-75
2022/10/30 11:56:46;;;;;;;;;12.50;11.25;;;;;19.75;58.41;101624.56;3013150;22;45271;-75
2022/10/30 11:57:58;;;;;;;;;12.75;11.00;;;;;19.74;58.72;101628.16;3012748;22;47089;-75
2022/10/30 11:59:17;;;;;;;;;15.75;10.25;;;;;19.75;58.40;101624.56;3018313;22;45193;-75
2022/10/30 12:00:33;;;;;;;;;13.75;12.00;;;;;19.74;59.20;101633.50;3012942;22;47182;-75
2022/10/30 12:02:18;;;;;;;;;11.50;10.50;;;;;19.75;59.03;101642.38;3019577;22;45156;-75
2022/10/30 12:03:35;;;;;;;;;10.50;8.25;;;;;19.75;59.13;101645.91;3029096;22;45407;-75
2022/10/30 12:04:45;;;;;;;;;10.75;9.50;;;;;19.76;58.89;101658.28;3029783;22;45292;-75
2022/10/30 12:06:10;;;;;;;;;13.50;10.25;;;;;19.77;58.54;101662.66;3029277;22;45272;-75
2022/10/30 12:07:26;;;;;;;;;12.25;11.00;;;;;19.78;59.12;101655.50;3028988;22;45208;-75
2022/10/30 12:08:36;;;;;;;;;10.25;8.75;;;;;19.77;58.18;101656.47;3028414;22;46062;-75
2022/10/30 12:09:47;;;;;;;;;12.75;10.25;;;;;19.78;58.09;101661.69;3013294;22;45176;-75
2022/10/30 12:11:00;;;;;;;;;11.25;8.75;;;;;19.79;58.39;101659.91;3017811;22;45304;-75
2022/10/30 12:12:38;;;;;;;;;12.50;10.25;;;;;19.81;58.28;101666.00;3013281;22;44551;-75
2022/10/30 12:13:53;;;;;;;;;12.50;10.25;;;;;19.83;58.09;101673.94;3023827;22;46629;-75
2022/10/30 12:15:20;;;;;;;;;12.50;9.75;;;;;19.83;58.60;101671.28;3028709;22;45192;-75
2022/10/30 12:16:32;;;;;;;;;10.75;9.75;;;;;19.85;58.42;101672.03;3029414;22;45236;-75
2022/10/30 12:17:54;;;;;;;;;11.50;10.75;;;;;19.87;59.35;101671.00;3013014;22;44651;-75
2022/10/30 12:19:14;;;;;;;;;11.50;10.50;;;;;19.90;59.05;101673.47;3013042;22;47553;-75
2022/10/30 12:20:25;;;;;;;;;12.00;8.25;;;;;19.92;58.71;101676.06;3020250;22;45285;-75
2022/10/30 12:21:39;;;;;;;;;11.75;10.25;;;;;19.94;58.92;101678.63;3012950;22;48013;-75
2022/10/30 12:22:50;;;;;;;;;11.25;11.00;;;;;19.93;58.48;101675.09;3018220;22;45200;-75
2022/10/30 12:24:05;;;;;;;;;12.75;11.25;;;;;19.92;58.59;101677.88;3029153;22;45144;-75
2022/10/30 12:25:27;;;;;;;;;10.50;8.25;;;;;19.94;59.37;101670.63;3029544;22;45286;-75
2022/10/30 12:26:39;;;;;;;;;10.00;7.25;;;;;19.97;58.92;101670.47;3012907;22;47251;-75
2022/10/30 12:27:57;;;;;;;;;13.50;10.75;;;;;19.96;58.45;101671.41;3018213;22;44552;-75
2022/10/30 12:29:15;;;;;;;;;11.75;11.50;;;;;19.93;57.96;101680.44;3029412;22;45172;-75
2022/10/30 12:30:29;;;;;;;;;19.00;14.50;;;;;19.92;58.82;101676.06;3029251;22;45128;-75
2022/10/30 12:31:44;;;;;;;;;15.50;11.50;;;;;19.91;58.85;101677.00;3028898;22;46340;-75
2022/10/30 12:32:57;;;;;;;;;10.75;9.00;;;;;19.93;59.14;101674.25;3028948;22;45303;-75
2022/10/30 12:34:16;;;;;;;;;11.50;11.50;;;;;19.94;59.19;101671.50;3028834;22;46287;-75
2022/10/30 12:35:51;;;;;;;;;17.00;12.25;;;;;19.94;58.90;101676.81;3029330;22;45291;-75
2022/10/30 12:37:10;;;;;;;;;15.75;13.50;;;;;19.95;58.47;101670.53;3029071;22;46241;-75
2022/10/30 12:38:24;;;;;;;;;16.25;13.25;;;;;19.91;59.20;101674.34;3029316;22;45138;-75
2022/10/30 12:39:45;;;;;;;;;14.75;12.50;;;;;19.88;58.87;101669.16;3012961;22;47305;-75
2022/10/30 12:41:04;;;;;;;;;11.00;10.25;;;;;19.90;59.47;101669.97;3020146;22;44622;-75
2022/10/30 12:42:17;;;;;;;;;14.75;13.25;;;;;19.92;59.40;101676.06;3029387;22;45997;-75
2022/10/30 12:43:27;;;;;;;;;19.75;13.00;;;;;19.93;59.03;101680.44;3029148;22;45262;-75
2022/10/30 12:44:44;;;;;;;;;25.75;22.75;;;;;19.93;59.31;101677.75;3029279;22;45184;-75
2022/10/30 12:46:11;;;;;;;;;13.75;12.25;;;;;19.89;59.27;101679.75;3029590;22;45321;-75
2022/10/30 12:47:39;;;;;;;;;16.25;13.00;;;;;19.88;59.23;101669.16;3029274;22;45509;-75
2022/10/30 12:49:09;;;;;;;;;14.25;13.50;;;;;19.90;59.59;101669.97;3013308;22;45106;-75
2022/10/30 12:50:36;;;;;;;;;13.25;11.00;;;;;19.90;59.39;101683.31;3006351;22;46854;-75
2022/10/30 12:52:01;;;;;;;;;7.50;5.25;;;;;19.85;58.26;101685.38;3021805;22;45247;-75
2022/10/30 12:53:17;;;;;;;;;10.50;9.00;;;;;19.78;58.48;101688.38;3029238;22;45081;-75
2022/10/30 12:54:46;;;;;;;;;9.25;7.75;;;;;19.74;58.99;101688.63;3012811;22;44646;-75
2022/10/30 12:56:09;;;;;;;;;11.25;9.50;;;;;19.68;58.69;101685.38;3021236;22;46328;-75